createdAt,value
2022-10-17T00:01:15.927Z,17.55
2022-10-17T00:03:54.012Z,17.46
2022-10-17T00:06:27.644Z,17.45
2022-10-17T00:09:05.860Z,17.43
2022-10-17T00:11:39.577Z,17.45
2022-10-17T00:14:13.136Z,17.42
2022-10-17T00:16:46.635Z,17.55
2022-10-17T00:19:21.565Z,17.45
2022-10-17T00:21:55.066Z,17.42
2022-10-17T00:24:28.246Z,17.54
2022-10-17T00:27:01.769Z,17.39
2022-10-17T00:29:34.993Z,17.51
2022-10-17T00:32:11.093Z,17.36
2022-10-17T00:34:53.835Z,17.35
2022-10-17T00:37:31.341Z,17.32
2022-10-17T00:40:10.686Z,17.33
2022-10-17T00:42:47.026Z,17.33
2022-10-17T00:45:29.078Z,17.34
2022-10-17T00:48:06.753Z,17.34
2022-10-17T00:50:47.783Z,17.34
2022-10-17T00:53:21.465Z,17.35
2022-10-17T00:55:55.887Z,17.34
2022-10-17T00:58:29.423Z,17.33
2022-10-17T01:01:03.302Z,17.41
2022-10-17T01:03:37.672Z,17.27
2022-10-17T01:06:12.280Z,17.34
2022-10-17T01:08:46.175Z,17.16
2022-10-17T01:11:31.508Z,17.08
2022-10-17T01:14:11.591Z,16.98
2022-10-17T01:16:54.549Z,16.90
2022-10-17T01:19:45.975Z,16.84
2022-10-17T01:22:28.130Z,16.75
2022-10-17T01:25:28.812Z,16.73
2022-10-17T01:28:24.279Z,16.66
2022-10-17T01:31:08.026Z,16.60
2022-10-17T01:33:49.837Z,16.55
2022-10-17T01:36:32.296Z,16.49
2022-10-17T01:39:15.862Z,16.42
2022-10-17T01:41:59.707Z,16.38
2022-10-17T01:44:40.637Z,16.33
2022-10-17T01:47:19.993Z,16.30
2022-10-17T01:49:58.813Z,16.24
2022-10-17T01:52:38.583Z,16.21
2022-10-17T01:55:15.444Z,16.18
2022-10-17T01:57:52.890Z,16.15
2022-10-17T02:00:28.988Z,16.13
2022-10-17T02:03:08.450Z,16.08
2022-10-17T02:05:45.201Z,16.04
2022-10-17T02:08:27.631Z,16.03
2022-10-17T02:11:04.968Z,15.97
2022-10-17T02:13:57.949Z,15.95
2022-10-17T02:16:39.013Z,15.89
2022-10-17T02:19:38.136Z,15.86
2022-10-17T02:22:23.400Z,15.78
2022-10-17T02:25:04.167Z,15.73
2022-10-17T02:27:47.866Z,15.71
2022-10-17T02:30:30.533Z,15.67
2022-10-17T02:33:09.013Z,15.67
2022-10-17T02:35:48.613Z,15.68
2022-10-17T02:38:24.374Z,15.67
2022-10-17T02:40:58.039Z,15.66
2022-10-17T02:43:31.534Z,15.74
2022-10-17T02:46:06.240Z,15.61
2022-10-17T02:48:44.350Z,15.56
2022-10-17T02:51:26.841Z,15.52
2022-10-17T02:54:09.635Z,15.51
2022-10-17T02:56:53.560Z,15.50
2022-10-17T02:59:32.029Z,15.48
2022-10-17T03:02:06.436Z,15.46
2022-10-17T03:04:41.229Z,15.43
2022-10-17T03:07:17.873Z,15.43
2022-10-17T03:09:51.430Z,15.44
2022-10-17T03:12:27.804Z,15.60
2022-10-17T03:15:01.662Z,15.53
2022-10-17T03:17:37.067Z,15.55
2022-10-17T03:20:11.223Z,15.58
2022-10-17T03:22:46.143Z,15.59
2022-10-17T03:25:19.583Z,15.60
2022-10-17T03:27:55.030Z,15.60
2022-10-17T03:30:28.371Z,15.69
2022-10-17T03:33:02.283Z,15.55
2022-10-17T03:35:35.760Z,15.51
2022-10-17T03:38:10.517Z,15.59
2022-10-17T03:40:44.120Z,15.43
2022-10-17T03:43:18.085Z,15.37
2022-10-17T03:45:51.422Z,15.44
2022-10-17T03:48:26.166Z,15.43
2022-10-17T03:51:03.946Z,15.29
2022-10-17T03:53:41.292Z,15.23
2022-10-17T03:56:16.822Z,15.17
2022-10-17T03:58:52.471Z,15.11
2022-10-17T04:01:25.936Z,15.18
2022-10-17T04:03:59.565Z,15.02
2022-10-17T04:06:37.223Z,14.95
2022-10-17T04:09:13.079Z,14.91
2022-10-17T04:12:16.017Z,14.87
2022-10-17T04:14:50.343Z,14.83
2022-10-17T04:17:24.220Z,14.84
2022-10-17T04:19:57.582Z,14.94
2022-10-17T04:22:31.393Z,14.83
2022-10-17T04:25:07.297Z,14.82
2022-10-17T04:27:45.156Z,14.80
2022-10-17T04:30:19.994Z,14.80
2022-10-17T04:32:53.521Z,14.79
2022-10-17T04:35:28.857Z,14.78
2022-10-17T04:38:08.726Z,14.78
2022-10-17T04:40:43.887Z,14.76
2022-10-17T04:43:17.963Z,14.77
2022-10-17T04:45:52.394Z,14.77
2022-10-17T04:48:25.660Z,14.87
2022-10-17T04:51:00.826Z,14.74
2022-10-17T04:53:46.715Z,14.69
2022-10-17T04:56:25.581Z,14.66
2022-10-17T04:59:00.819Z,14.63
2022-10-17T05:01:34.790Z,14.62
2022-10-17T05:04:07.982Z,14.71
2022-10-17T05:06:42.141Z,14.59
2022-10-17T05:09:35.739Z,14.53
2022-10-17T05:12:10.841Z,14.49
2022-10-17T05:14:50.861Z,14.47
2022-10-17T05:17:25.216Z,14.45
2022-10-17T05:20:00.988Z,14.54
2022-10-17T05:22:39.656Z,14.46
2022-10-17T05:25:20.003Z,14.44
2022-10-17T05:27:55.021Z,14.44
2022-10-17T05:30:31.438Z,14.46
2022-10-17T05:33:08.052Z,14.48
2022-10-17T05:35:41.323Z,14.61
2022-10-17T05:38:15.045Z,14.52
2022-10-17T05:40:50.559Z,14.54
2022-10-17T05:43:26.412Z,14.58
2022-10-17T05:46:00.181Z,14.61
2022-10-17T05:48:34.734Z,14.64
2022-10-17T05:51:10.116Z,14.66
2022-10-17T05:53:45.425Z,14.69
2022-10-17T05:56:24.326Z,14.71
2022-10-17T05:59:01.093Z,14.77
2022-10-17T06:01:46.147Z,14.85
2022-10-17T06:04:19.886Z,14.94
2022-10-17T06:06:53.714Z,15.02
2022-10-17T06:09:27.464Z,15.08
2022-10-17T06:12:01.964Z,15.17
2022-10-17T06:14:38.074Z,15.22
2022-10-17T06:17:20.869Z,15.26
2022-10-17T06:19:58.386Z,15.33
2022-10-17T06:22:32.491Z,15.41
2022-10-17T06:25:08.533Z,15.46
2022-10-17T06:27:42.310Z,15.54
2022-10-17T06:30:23.854Z,15.64
2022-10-17T06:32:59.244Z,15.73
2022-10-17T06:35:33.054Z,15.83
2022-10-17T06:38:07.021Z,15.96
2022-10-17T06:40:44.644Z,16.07
2022-10-17T06:43:21.417Z,16.17
2022-10-17T06:46:26.956Z,16.32
2022-10-17T06:49:04.996Z,16.45
2022-10-17T06:51:56.302Z,16.60
2022-10-17T06:54:53.262Z,16.71
2022-10-17T06:57:41.263Z,16.84
2022-10-17T07:00:33.778Z,16.95
2022-10-17T07:03:10.223Z,17.03
2022-10-17T07:05:43.985Z,17.15
2022-10-17T07:08:17.605Z,17.26
2022-10-17T07:10:52.091Z,17.45
2022-10-17T07:13:27.044Z,17.73
2022-10-17T07:16:02.006Z,18.04
2022-10-17T07:18:44.810Z,18.38
2022-10-17T07:21:18.867Z,18.82
2022-10-17T07:23:55.723Z,19.25
2022-10-17T07:26:29.300Z,19.64
2022-10-17T07:29:06.602Z,20.04
2022-10-17T07:31:49.056Z,20.45
2022-10-17T07:34:27.605Z,20.90
2022-10-17T07:37:01.660Z,21.30
2022-10-17T07:39:35.893Z,21.75
2022-10-17T07:42:09.788Z,22.24
2022-10-17T07:44:44.279Z,22.83
2022-10-17T07:47:19.278Z,23.36
2022-10-17T07:49:55.429Z,23.86
2022-10-17T07:52:29.663Z,24.40
2022-10-17T07:55:03.435Z,24.65
2022-10-17T07:57:37.058Z,25.23
2022-10-17T08:00:12.587Z,25.80
2022-10-17T08:02:46.120Z,26.37
2022-10-17T08:05:21.255Z,26.91
2022-10-17T08:07:54.912Z,27.38
2022-10-17T08:10:29.794Z,27.80
2022-10-17T08:13:03.705Z,28.21
2022-10-17T08:15:40.040Z,28.58
2022-10-17T08:18:14.648Z,29.08
2022-10-17T08:20:49.538Z,29.79
2022-10-17T08:23:23.318Z,30.56
2022-10-17T08:25:59.953Z,31.36
2022-10-17T08:28:36.710Z,32.14
2022-10-17T08:31:12.318Z,33.03
2022-10-17T08:33:46.561Z,33.75
2022-10-17T08:36:22.806Z,34.34
2022-10-17T08:38:56.694Z,34.85
2022-10-17T08:41:45.519Z,35.26
2022-10-17T08:44:31.365Z,35.66
2022-10-17T08:47:10.172Z,35.94
2022-10-17T08:49:49.019Z,36.21
2022-10-17T08:52:41.379Z,36.27
2022-10-17T08:57:56.716Z,36.55
2022-10-17T09:00:32.367Z,36.88
2022-10-17T09:03:18.929Z,37.33
2022-10-17T09:05:57.728Z,37.63
2022-10-17T09:08:42.135Z,38.07
2022-10-17T09:11:30.549Z,38.01
2022-10-17T09:14:17.630Z,37.88
2022-10-17T09:17:13.644Z,38.20
2022-10-17T09:20:03.639Z,38.56
2022-10-17T09:22:42.813Z,38.72
2022-10-17T09:25:20.566Z,38.71
2022-10-17T09:28:08.168Z,38.92
2022-10-17T09:30:45.836Z,39.09
2022-10-17T09:33:34.549Z,38.99
2022-10-17T09:36:14.570Z,38.89
2022-10-17T09:38:52.286Z,38.80
2022-10-17T09:41:44.941Z,38.42
2022-10-17T09:44:23.060Z,38.00
2022-10-17T09:47:14.172Z,38.06
2022-10-17T09:49:49.045Z,38.27
2022-10-17T09:52:28.935Z,38.15
2022-10-17T09:55:07.739Z,38.49
2022-10-17T09:57:57.576Z,38.80
2022-10-17T10:00:34.441Z,39.17
2022-10-17T10:03:16.820Z,39.50
2022-10-17T10:06:05.891Z,39.60
2022-10-17T10:08:51.095Z,39.61
2022-10-17T10:11:27.599Z,39.74
2022-10-17T10:14:13.710Z,39.86
2022-10-17T10:16:50.054Z,39.78
2022-10-17T10:19:31.618Z,39.88
2022-10-17T10:22:07.854Z,40.01
2022-10-17T10:24:41.774Z,40.23
2022-10-17T10:27:19.862Z,40.42
2022-10-17T10:29:55.264Z,40.54
2022-10-17T10:32:30.912Z,40.72
2022-10-17T10:35:08.985Z,40.87
2022-10-17T10:37:47.999Z,40.77
2022-10-17T10:40:25.133Z,40.75
2022-10-17T10:43:05.227Z,40.89
2022-10-17T10:45:48.975Z,40.62
2022-10-17T10:48:24.671Z,40.54
2022-10-17T10:51:01.901Z,40.54
2022-10-17T10:53:44.379Z,40.43
2022-10-17T10:56:22.081Z,40.37
2022-10-17T10:59:00.082Z,40.55
2022-10-17T11:01:48.005Z,40.66
2022-10-17T11:04:28.579Z,40.62
2022-10-17T11:07:12.827Z,40.30
2022-10-17T11:09:56.567Z,40.11
2022-10-17T11:12:36.090Z,40.18
2022-10-17T11:15:20.761Z,40.27
2022-10-17T11:18:01.144Z,40.09
2022-10-17T11:20:51.772Z,39.56
2022-10-17T11:23:31.784Z,39.00
2022-10-17T11:26:20.052Z,38.13
2022-10-17T11:28:54.512Z,36.96
2022-10-17T11:31:39.652Z,36.10
2022-10-17T11:34:23.956Z,35.89
2022-10-17T11:37:24.803Z,36.18
2022-10-17T11:40:07.775Z,36.79
2022-10-17T11:42:47.511Z,37.33
2022-10-17T11:45:23.896Z,37.76
2022-10-17T11:52:56.414Z,39.27
2022-10-17T11:55:34.408Z,39.78
2022-10-17T12:05:02.028Z,41.05
2022-10-17T12:14:45.239Z,41.38
2022-10-17T12:17:33.208Z,41.44
2022-10-17T12:28:45.043Z,41.18
2022-10-17T12:35:25.784Z,40.16
2022-10-17T12:46:11.326Z,38.52
2022-10-17T12:56:22.395Z,36.72
2022-10-17T13:07:21.087Z,36.31
2022-10-17T13:09:54.910Z,36.34
2022-10-17T13:12:57.170Z,36.29
2022-10-17T13:15:36.179Z,35.90
2022-10-17T13:18:21.158Z,35.49
2022-10-17T13:21:09.787Z,34.96
2022-10-17T13:23:50.907Z,34.04
2022-10-17T13:26:26.014Z,33.44
2022-10-17T13:29:04.149Z,32.78
2022-10-17T13:31:40.062Z,32.13
2022-10-17T13:34:18.941Z,31.49
2022-10-17T13:36:54.857Z,30.77
2022-10-17T13:39:58.325Z,30.06
2022-10-17T13:42:40.405Z,29.24
2022-10-17T13:45:20.653Z,28.63
2022-10-17T13:47:56.674Z,28.10
2022-10-17T13:50:44.051Z,27.66
2022-10-17T13:53:22.210Z,27.26
2022-10-17T13:56:26.290Z,26.90
2022-10-17T13:58:59.327Z,26.46
2022-10-17T14:01:33.290Z,26.20
2022-10-17T14:04:10.445Z,25.95
2022-10-17T14:06:52.312Z,25.72
2022-10-17T14:09:28.313Z,25.52
2022-10-17T14:12:12.978Z,25.36
2022-10-17T14:15:10.499Z,25.16
2022-10-17T14:17:46.013Z,24.97
2022-10-17T14:23:38.005Z,24.72
2022-10-17T14:26:18.027Z,24.56
2022-10-17T14:29:08.420Z,24.45
2022-10-17T14:31:41.951Z,24.28
2022-10-17T14:34:28.021Z,24.17
2022-10-17T14:37:19.819Z,24.04
2022-10-17T14:39:55.420Z,23.93
2022-10-17T14:42:29.200Z,23.81
2022-10-17T14:45:08.797Z,23.71
2022-10-17T14:47:44.212Z,23.61
2022-10-17T14:50:24.729Z,23.55
2022-10-17T14:53:05.062Z,23.48
2022-10-17T14:55:44.744Z,23.43
2022-10-17T14:58:36.449Z,23.36
2022-10-17T15:01:20.620Z,23.33
2022-10-17T15:03:54.624Z,23.30
2022-10-17T15:06:30.220Z,23.29
2022-10-17T15:09:04.749Z,23.25
2022-10-17T15:11:38.445Z,23.19
2022-10-17T15:14:12.982Z,23.15
2022-10-17T15:16:49.236Z,23.08
2022-10-17T15:19:22.895Z,23.00
2022-10-17T15:21:56.495Z,22.95
2022-10-17T15:24:30.094Z,22.86
2022-10-17T15:27:03.759Z,22.79
2022-10-17T15:29:37.294Z,22.70
2022-10-17T15:32:12.704Z,22.64
2022-10-17T15:34:46.482Z,22.58
2022-10-17T15:37:23.570Z,22.54
2022-10-17T15:39:57.230Z,22.46
2022-10-17T15:42:31.971Z,22.36
2022-10-17T15:47:54.121Z,22.22
2022-10-17T15:50:31.245Z,22.11
2022-10-17T15:53:09.602Z,22.03
2022-10-17T15:55:43.207Z,21.97
2022-10-17T15:58:17.364Z,21.89
2022-10-17T16:00:51.040Z,21.82
2022-10-17T16:03:26.038Z,21.74
2022-10-17T16:05:59.688Z,21.66
2022-10-17T16:08:33.234Z,21.59
2022-10-17T16:11:07.038Z,21.52
2022-10-17T16:13:41.694Z,21.47
2022-10-17T16:16:15.344Z,21.41
2022-10-17T16:18:50.853Z,21.35
2022-10-17T16:21:27.314Z,21.29
2022-10-17T16:24:01.472Z,21.23
2022-10-17T16:26:35.142Z,21.19
2022-10-17T16:29:10.209Z,21.14
2022-10-17T16:31:46.004Z,21.09
2022-10-17T16:34:21.076Z,21.04
2022-10-17T16:36:54.624Z,21.01
2022-10-17T16:42:01.971Z,20.94
2022-10-17T16:44:35.752Z,20.92
2022-10-17T16:47:10.020Z,20.86
2022-10-17T16:49:45.541Z,20.83
2022-10-17T16:52:19.152Z,20.78
2022-10-17T16:54:53.397Z,20.73
2022-10-17T16:57:27.128Z,20.68
2022-10-17T17:00:00.981Z,20.64
2022-10-17T17:02:34.867Z,20.58
2022-10-17T17:05:10.636Z,20.54
2022-10-17T17:07:44.350Z,20.49
2022-10-17T17:10:18.229Z,20.45
2022-10-17T17:12:51.853Z,20.42
2022-10-17T17:15:25.626Z,20.37
2022-10-17T17:18:04.036Z,20.32
2022-10-17T17:20:40.628Z,20.28
2022-10-17T17:23:16.000Z,20.24
2022-10-17T17:25:50.870Z,20.20
2022-10-17T17:28:26.223Z,20.18
2022-10-17T17:30:59.932Z,20.13
2022-10-17T17:33:33.935Z,20.10
2022-10-17T17:36:11.601Z,20.06
2022-10-17T17:38:46.143Z,20.02
2022-10-17T17:41:21.297Z,19.99
2022-10-17T17:43:55.985Z,19.94
2022-10-17T17:46:29.671Z,19.89
2022-10-17T17:49:03.329Z,19.85
2022-10-17T17:51:41.585Z,19.82
2022-10-17T17:54:15.792Z,19.79
2022-10-17T17:56:51.738Z,19.78
2022-10-17T17:59:25.439Z,19.74
2022-10-17T18:01:59.087Z,19.72
2022-10-17T18:04:33.200Z,19.69
2022-10-17T18:07:08.174Z,19.66
2022-10-17T18:09:41.928Z,19.64
2022-10-17T18:12:15.639Z,19.61
2022-10-17T18:14:49.765Z,19.57
2022-10-17T18:17:26.983Z,19.52
2022-10-17T18:20:00.616Z,19.48
2022-10-17T18:22:37.224Z,19.44
2022-10-17T18:25:11.232Z,19.41
2022-10-17T18:27:44.863Z,19.37
2022-10-17T18:30:25.476Z,19.35
2022-10-17T18:33:01.102Z,19.33
2022-10-17T18:35:36.559Z,19.30
2022-10-17T18:38:15.334Z,19.29
2022-10-17T18:40:51.259Z,19.27
2022-10-17T18:46:10.850Z,19.20
2022-10-17T18:48:49.136Z,19.18
2022-10-17T18:51:32.768Z,19.17
2022-10-17T18:54:12.637Z,19.15
2022-10-17T18:56:46.398Z,19.12
2022-10-17T18:59:20.927Z,19.09
2022-10-17T19:01:54.738Z,19.06
2022-10-17T19:04:28.797Z,19.04
2022-10-17T19:07:02.431Z,19.03
2022-10-17T19:09:37.606Z,18.98
2022-10-17T19:12:11.331Z,18.96
2022-10-17T19:14:45.035Z,18.95
2022-10-17T19:17:18.736Z,18.91
2022-10-17T19:19:55.945Z,18.90
2022-10-17T19:22:33.308Z,18.85
2022-10-17T19:25:08.943Z,18.82
2022-10-17T19:27:45.345Z,18.79
2022-10-17T19:30:21.532Z,18.75
2022-10-17T19:32:55.171Z,18.70
2022-10-17T19:35:28.729Z,18.66
2022-10-17T19:38:02.273Z,18.63
2022-10-17T19:40:43.397Z,18.72
2022-10-17T19:43:17.047Z,18.58
2022-10-17T19:45:56.859Z,18.67
2022-10-17T19:48:33.428Z,18.54
2022-10-17T19:51:08.044Z,18.49
2022-10-17T19:53:41.686Z,18.47
2022-10-17T19:56:18.741Z,18.44
2022-10-17T19:58:54.180Z,18.43
2022-10-17T20:01:30.017Z,18.43
2022-10-17T20:04:04.137Z,18.41
2022-10-17T20:06:38.104Z,18.42
2022-10-17T20:09:18.068Z,18.43
2022-10-17T20:11:53.697Z,18.43
2022-10-17T20:14:27.382Z,18.43
2022-10-17T20:17:01.062Z,18.44
2022-10-17T20:19:35.070Z,18.45
2022-10-17T20:22:08.633Z,18.45
2022-10-17T20:24:41.828Z,18.57
2022-10-17T20:27:16.767Z,18.46
2022-10-17T20:29:50.398Z,18.45
2022-10-17T20:32:24.065Z,18.43
2022-10-17T20:34:57.659Z,18.42
2022-10-17T20:37:31.212Z,18.54
2022-10-17T20:40:33.041Z,18.41
2022-10-17T20:43:07.670Z,18.38
2022-10-17T20:45:51.188Z,18.35
2022-10-17T20:48:25.641Z,18.33
2022-10-17T20:51:07.481Z,18.32
2022-10-17T20:53:44.061Z,18.31
2022-10-17T20:56:21.466Z,18.31
2022-10-17T20:59:01.574Z,18.32
2022-10-17T21:01:37.406Z,18.30
2022-10-17T21:04:40.327Z,18.30
2022-10-17T21:07:04.734Z,18.30
2022-10-17T21:09:46.306Z,18.27
2022-10-17T21:12:31.341Z,18.25
2022-10-17T21:15:14.771Z,18.24
2022-10-17T21:17:48.310Z,18.23
2022-10-17T21:20:21.907Z,18.34
2022-10-17T21:22:55.579Z,18.23
2022-10-17T21:25:33.033Z,18.19
2022-10-17T21:28:06.770Z,18.18
2022-10-17T21:30:43.970Z,18.15
2022-10-17T21:33:17.487Z,18.14
2022-10-17T21:35:55.599Z,18.26
2022-10-17T21:38:31.667Z,18.13
2022-10-17T21:41:06.074Z,18.09
2022-10-17T21:43:39.825Z,18.07
2022-10-17T21:46:16.660Z,18.04
2022-10-17T21:48:51.924Z,18.04
2022-10-17T21:51:28.652Z,18.02
2022-10-17T21:54:06.060Z,18.00
2022-10-17T21:56:39.634Z,17.97
2022-10-17T21:59:12.947Z,18.07
2022-10-17T22:01:48.173Z,17.97
2022-10-17T22:04:21.863Z,17.93
2022-10-17T22:06:55.371Z,17.92
2022-10-17T22:09:28.719Z,18.03
2022-10-17T22:12:02.217Z,17.92
2022-10-17T22:14:35.791Z,17.89
2022-10-17T22:17:11.052Z,17.86
2022-10-17T22:19:44.549Z,17.83
2022-10-17T22:22:17.680Z,17.95
2022-10-17T22:24:51.243Z,17.82
2022-10-17T22:27:24.433Z,17.93
2022-10-17T22:29:57.937Z,17.81
2022-10-17T22:32:32.538Z,17.88
2022-10-17T22:35:06.782Z,17.74
2022-10-17T22:37:40.483Z,17.70
2022-10-17T22:40:14.666Z,17.69
2022-10-17T22:42:48.300Z,17.69
2022-10-17T22:45:21.802Z,17.68
2022-10-17T22:47:57.077Z,17.67
2022-10-17T22:50:30.739Z,17.66
2022-10-17T22:53:04.445Z,17.64
2022-10-17T22:55:42.026Z,17.61
2022-10-17T22:58:18.164Z,17.58
2022-10-17T23:00:52.791Z,17.57
2022-10-17T23:03:31.890Z,17.55
2022-10-17T23:06:05.546Z,17.53
2022-10-17T23:08:39.411Z,17.49
2022-10-17T23:11:13.220Z,17.45
2022-10-17T23:13:46.723Z,17.41
2022-10-17T23:16:25.250Z,17.51
2022-10-17T23:19:00.357Z,17.37
2022-10-17T23:21:33.848Z,17.32
2022-10-17T23:24:07.969Z,17.27
2022-10-17T23:26:42.626Z,17.22
2022-10-17T23:29:16.100Z,17.18
2022-10-17T23:31:49.946Z,17.15
2022-10-17T23:34:24.896Z,17.11
2022-10-17T23:36:58.744Z,17.08
2022-10-17T23:39:32.303Z,17.03
2022-10-17T23:42:05.700Z,17.12
2022-10-17T23:44:41.002Z,16.97
2022-10-17T23:47:14.488Z,16.93
2022-10-17T23:49:49.471Z,16.86
2022-10-17T23:52:22.994Z,16.82
2022-10-17T23:54:56.470Z,16.79
2022-10-17T23:57:30.236Z,16.74
